createdAt,value
2019-03-25T00:00:11.064Z,55.90
2019-03-25T00:05:14.803Z,52.20
2019-03-25T00:10:18.400Z,46.75
2019-03-25T00:15:22.087Z,50.78
2019-03-25T00:20:25.677Z,54.80
2019-03-25T00:25:29.271Z,51.60
2019-03-25T00:30:32.975Z,47.15
2019-03-25T00:35:36.604Z,51.55
2019-03-25T00:40:40.189Z,49.90
2019-03-25T00:45:43.869Z,47.27
2019-03-25T00:50:47.573Z,48.90
2019-03-25T00:55:51.123Z,49.67
2019-03-25T01:00:54.740Z,51.68
2019-03-25T01:05:58.389Z,46.95
2019-03-25T01:11:02.208Z,48.17
2019-03-25T01:16:05.926Z,50.23
2019-03-25T01:21:09.584Z,53.78
2019-03-25T01:26:13.352Z,48.70
2019-03-25T01:31:18.786Z,51.20
2019-03-25T01:36:22.354Z,55.75
2019-03-25T01:41:26.043Z,50.95
2019-03-25T01:46:29.541Z,55.20
2019-03-25T01:51:33.317Z,49.30
2019-03-25T01:56:37.010Z,55.28
2019-03-25T02:01:40.983Z,47.35
2019-03-25T02:06:44.646Z,48.33
2019-03-25T02:11:48.200Z,50.28
2019-03-25T02:16:51.714Z,46.42
2019-03-25T02:21:55.312Z,42.33
2019-03-25T02:26:58.972Z,43.40
2019-03-25T02:32:02.560Z,42.27
2019-03-25T02:37:06.168Z,43.38
2019-03-25T02:42:09.837Z,36.73
2019-03-25T02:47:13.379Z,39.90
2019-03-25T02:52:16.904Z,37.65
2019-03-25T02:57:20.504Z,38.63
2019-03-25T03:02:24.101Z,40.33
2019-03-25T03:07:27.770Z,40.12
2019-03-25T03:12:31.372Z,39.75
2019-03-25T03:17:34.999Z,34.45
2019-03-25T03:22:38.614Z,41.15
2019-03-25T03:27:42.647Z,38.10
2019-03-25T03:32:46.490Z,38.40
2019-03-25T03:37:50.308Z,37.70
2019-03-25T03:42:54.071Z,39.83
2019-03-25T03:47:57.704Z,35.05
2019-03-25T03:53:01.527Z,40.75
2019-03-25T03:58:05.300Z,42.80
2019-03-25T04:03:08.912Z,40.85
2019-03-25T04:08:12.659Z,41.55
2019-03-25T04:13:16.294Z,41.37
2019-03-25T04:18:19.868Z,41.53
2019-03-25T04:23:23.405Z,41.90
2019-03-25T04:28:27.029Z,42.13
2019-03-25T04:33:30.883Z,42.93
2019-03-25T04:38:34.464Z,45.92
2019-03-25T04:43:38.056Z,41.10
2019-03-25T04:48:41.687Z,43.50
2019-03-25T04:53:45.462Z,38.63
2019-03-25T04:58:49.136Z,43.85
2019-03-25T05:03:52.774Z,42.33
2019-03-25T05:08:56.495Z,39.83
2019-03-25T05:14:00.172Z,38.67
2019-03-25T05:19:03.776Z,39.03
2019-03-25T05:24:07.430Z,40.25
2019-03-25T05:29:30.499Z,41.42
2019-03-25T05:34:34.326Z,39.08
2019-03-25T05:39:41.943Z,41.65
2019-03-25T05:44:45.890Z,45.90
2019-03-25T05:49:49.652Z,38.53
2019-03-25T05:54:53.360Z,44.08
2019-03-25T05:59:56.937Z,38.60
2019-03-25T06:05:00.739Z,40.90
2019-03-25T06:10:05.924Z,43.42
2019-03-25T12:55:42.946Z,10.32
2019-03-25T13:00:46.645Z,15.60
2019-03-25T13:05:50.365Z,14.43
2019-03-25T13:10:54.188Z,17.62
2019-03-25T13:15:57.890Z,18.23
2019-03-25T13:21:01.719Z,10.08
2019-03-25T13:26:05.440Z,14.73
2019-03-25T13:31:09.076Z,20.50
2019-03-25T13:36:12.903Z,14.70
2019-03-25T13:41:16.527Z,14.10
2019-03-25T13:46:20.268Z,17.50
2019-03-25T13:51:23.822Z,18.92
2019-03-25T13:56:27.512Z,27.02
2019-03-25T14:01:31.475Z,26.97
2019-03-25T14:06:35.100Z,27.67
2019-03-25T14:11:44.440Z,28.27
2019-03-25T14:16:48.096Z,23.77
2019-03-25T14:21:51.703Z,23.95
2019-03-25T14:26:55.364Z,24.98
2019-03-25T14:31:59.086Z,21.50
2019-03-25T14:37:02.874Z,25.92
2019-03-25T14:42:06.589Z,18.10
2019-03-25T14:47:10.449Z,20.82
2019-03-25T14:52:14.000Z,22.70
2019-03-25T14:57:18.019Z,17.62
2019-03-25T15:02:21.827Z,22.13
2019-03-25T15:07:25.601Z,18.77
2019-03-25T15:12:29.360Z,16.05
2019-03-25T15:17:33.059Z,19.10
2019-03-25T15:22:36.883Z,17.42
2019-03-25T15:27:40.637Z,12.05
2019-03-25T15:32:44.516Z,10.78
2019-03-25T15:37:48.187Z,26.80
2019-03-25T15:42:51.827Z,20.65
2019-03-25T15:47:55.476Z,13.22
2019-03-25T15:52:59.099Z,15.65
2019-03-25T15:58:02.810Z,10.35
2019-03-25T16:03:07.836Z,9.03
2019-03-25T16:08:11.522Z,10.32
2019-03-25T16:13:15.638Z,13.20
2019-03-25T16:18:36.798Z,9.00
2019-03-25T16:23:40.702Z,14.93
2019-03-25T16:28:44.273Z,20.92
2019-03-25T16:33:48.387Z,20.50
2019-03-25T16:38:52.067Z,18.75
2019-03-25T16:43:55.779Z,23.30
2019-03-25T16:48:59.503Z,23.90
2019-03-25T16:54:03.638Z,20.27
2019-03-25T16:59:07.332Z,35.13
2019-03-25T17:04:10.830Z,19.55
2019-03-25T17:09:14.502Z,20.35
2019-03-25T17:14:18.361Z,24.65
2019-03-25T17:19:21.943Z,26.52
2019-03-25T17:24:25.850Z,27.15
2019-03-25T17:29:29.639Z,30.68
2019-03-25T17:34:34.385Z,28.47
2019-03-25T17:39:37.977Z,28.07
2019-03-25T17:44:41.741Z,30.97
2019-03-25T17:49:45.622Z,35.38
2019-03-25T17:54:49.427Z,41.75
2019-03-25T17:59:53.236Z,38.02
2019-03-25T18:04:56.942Z,37.30
2019-03-25T18:10:00.730Z,36.83
2019-03-25T18:15:07.254Z,28.92
2019-03-25T18:20:18.679Z,29.05
2019-03-25T18:25:16.592Z,34.50
2019-03-25T18:30:31.721Z,32.38
2019-03-25T18:35:35.448Z,37.38
2019-03-25T18:40:39.295Z,37.10
2019-03-25T18:45:43.031Z,28.83
2019-03-25T18:50:46.764Z,32.75
2019-03-25T18:55:50.588Z,30.15
2019-03-25T19:00:54.415Z,26.62
2019-03-25T19:05:58.240Z,28.05
2019-03-25T19:11:02.111Z,31.37
2019-03-25T19:16:05.962Z,27.98
2019-03-25T19:21:09.733Z,27.13
2019-03-25T19:26:13.467Z,28.12
2019-03-25T19:31:17.298Z,21.00
2019-03-25T19:36:21.116Z,21.05
2019-03-25T19:41:32.193Z,25.35
2019-03-25T19:46:31.448Z,24.07
2019-03-25T19:51:35.510Z,20.30
2019-03-25T19:56:39.312Z,22.15
2019-03-25T20:01:43.086Z,23.75
2019-03-25T20:06:47.380Z,25.10
2019-03-25T20:11:51.453Z,23.65
2019-03-25T20:16:55.205Z,25.97
2019-03-25T20:21:58.990Z,26.73
2019-03-25T20:27:02.856Z,28.83
2019-03-25T20:32:06.668Z,29.18
2019-03-25T20:37:10.448Z,27.58
2019-03-25T20:42:14.597Z,25.40
2019-03-25T20:47:18.478Z,24.75
2019-03-25T20:52:24.445Z,24.43
2019-03-25T20:57:27.945Z,27.20
2019-03-25T21:02:44.194Z,34.40
2019-03-25T21:07:37.378Z,28.02
2019-03-25T21:12:41.176Z,37.65
2019-03-25T21:17:49.478Z,27.75
2019-03-25T21:27:58.871Z,26.95
2019-03-25T21:33:02.855Z,29.15
2019-03-25T21:38:06.646Z,50.95
2019-03-25T21:43:10.630Z,50.98
2019-03-25T21:48:14.299Z,24.65
2019-03-25T21:53:18.582Z,26.62
2019-03-25T21:58:22.314Z,25.95
2019-03-25T22:03:26.060Z,33.60
2019-03-25T22:08:29.824Z,26.25
2019-03-25T22:13:33.539Z,25.15
2019-03-25T22:18:37.307Z,29.05
2019-03-25T22:23:41.081Z,29.32
2019-03-25T22:28:44.761Z,30.57
2019-03-25T22:33:48.420Z,26.10
2019-03-25T22:38:52.276Z,27.67
2019-03-25T22:43:56.125Z,31.52
2019-03-25T22:49:00.226Z,28.40
2019-03-25T22:54:04.102Z,26.35
2019-03-25T22:59:07.852Z,25.85
2019-03-25T23:04:11.639Z,26.17
2019-03-25T23:09:15.538Z,27.48
2019-03-25T23:14:19.409Z,28.25
2019-03-25T23:19:23.255Z,24.75
2019-03-25T23:24:26.967Z,23.73
2019-03-25T23:29:32.029Z,22.85
2019-03-25T23:34:35.876Z,21.68
2019-03-25T23:39:39.692Z,22.52
2019-03-25T23:44:43.479Z,22.20
2019-03-25T23:49:47.241Z,21.10
2019-03-25T23:54:51.023Z,19.67
2019-03-25T23:59:54.783Z,20.23
